createdAt,value
2022-07-29T00:02:26.895Z,6.72
2022-07-29T00:04:53.852Z,8.00
2022-07-29T00:07:21.004Z,7.88
2022-07-29T00:09:51.643Z,11.05
2022-07-29T00:12:21.510Z,9.40
2022-07-29T00:14:56.825Z,8.60
2022-07-29T00:17:24.948Z,10.80
2022-07-29T00:19:51.703Z,8.35
2022-07-29T00:22:18.661Z,8.38
2022-07-29T00:24:45.519Z,8.00
2022-07-29T00:27:12.209Z,7.82
2022-07-29T00:29:39.040Z,8.03
2022-07-29T00:32:06.310Z,9.52
2022-07-29T00:34:51.336Z,7.05
2022-07-29T00:37:18.275Z,8.95
2022-07-29T00:39:45.185Z,7.60
2022-07-29T00:42:12.012Z,10.77
2022-07-29T00:44:42.980Z,9.27
2022-07-29T00:47:11.226Z,8.18
2022-07-29T00:49:40.482Z,8.63
2022-07-29T00:52:09.525Z,8.80
2022-07-29T00:54:39.166Z,7.63
2022-07-29T00:57:12.486Z,6.10
2022-07-29T00:59:39.208Z,5.70
2022-07-29T01:02:06.446Z,6.35
2022-07-29T01:04:34.296Z,6.18
2022-07-29T01:07:02.687Z,6.30
2022-07-29T01:09:42.870Z,5.03
2022-07-29T01:12:26.254Z,6.88
2022-07-29T01:14:55.062Z,5.85
2022-07-29T01:17:27.068Z,5.07
2022-07-29T01:20:13.562Z,5.07
2022-07-29T01:23:05.761Z,5.18
2022-07-29T01:25:46.501Z,4.53
2022-07-29T01:28:39.423Z,4.70
2022-07-29T01:31:11.003Z,4.10
2022-07-29T01:33:49.919Z,4.70
2022-07-29T01:36:31.848Z,5.07
2022-07-29T01:39:12.190Z,6.35
2022-07-29T01:41:44.573Z,4.88
2022-07-29T01:44:16.277Z,8.70
2022-07-29T01:46:51.474Z,7.87
2022-07-29T01:49:26.259Z,9.90
2022-07-29T01:52:02.011Z,8.60
2022-07-29T01:54:38.262Z,7.00
2022-07-29T01:57:07.354Z,10.18
2022-07-29T01:59:37.228Z,9.70
2022-07-29T02:02:05.746Z,11.73
2022-07-29T02:04:34.504Z,10.40
2022-07-29T02:07:11.248Z,11.05
2022-07-29T02:09:40.423Z,10.52
2022-07-29T02:12:08.484Z,13.67
2022-07-29T02:14:40.742Z,12.60
2022-07-29T02:17:08.419Z,17.02
2022-07-29T02:19:37.883Z,15.65
2022-07-29T02:22:07.640Z,15.40
2022-07-29T02:24:37.448Z,16.93
2022-07-29T02:27:05.181Z,16.30
2022-07-29T02:29:33.582Z,19.23
2022-07-29T02:32:01.811Z,13.00
2022-07-29T02:34:29.922Z,13.40
2022-07-29T02:36:56.993Z,13.23
2022-07-29T02:39:25.565Z,11.13
2022-07-29T02:42:02.384Z,12.48
2022-07-29T02:44:34.408Z,12.60
2022-07-29T02:47:23.004Z,10.52
2022-07-29T02:49:54.939Z,12.33
2022-07-29T02:52:24.927Z,12.27
2022-07-29T02:55:01.126Z,20.23
2022-07-29T02:57:36.091Z,16.15
2022-07-29T03:00:24.587Z,17.98
2022-07-29T03:02:54.721Z,17.83
2022-07-29T03:05:22.659Z,20.70
2022-07-29T03:07:55.645Z,17.02
2022-07-29T03:10:22.789Z,15.52
2022-07-29T03:12:49.676Z,14.60
2022-07-29T03:15:17.247Z,17.97
2022-07-29T03:17:44.428Z,17.20
2022-07-29T03:20:12.654Z,20.77
2022-07-29T03:22:44.455Z,18.70
2022-07-29T03:25:12.413Z,16.35
2022-07-29T03:27:39.422Z,18.33
2022-07-29T03:30:08.273Z,18.63
2022-07-29T03:32:36.187Z,15.13
2022-07-29T03:35:03.271Z,19.58
2022-07-29T03:37:31.524Z,16.55
2022-07-29T03:39:59.304Z,18.00
2022-07-29T03:42:34.345Z,18.13
2022-07-29T03:45:06.381Z,19.20
2022-07-29T03:47:51.212Z,16.30
2022-07-29T03:50:21.149Z,16.17
2022-07-29T03:52:49.006Z,17.07
2022-07-29T03:55:16.924Z,13.20
2022-07-29T03:57:45.390Z,13.05
2022-07-29T04:00:13.061Z,15.90
2022-07-29T04:02:41.029Z,20.08
2022-07-29T04:05:13.317Z,15.43
2022-07-29T04:07:40.596Z,14.35
2022-07-29T04:10:08.318Z,14.45
2022-07-29T04:12:35.308Z,16.38
2022-07-29T04:15:05.840Z,14.82
2022-07-29T04:17:32.544Z,14.00
2022-07-29T04:19:59.713Z,15.30
2022-07-29T04:22:26.375Z,16.05
2022-07-29T04:24:54.088Z,12.30
2022-07-29T04:27:20.955Z,12.27
2022-07-29T04:29:55.961Z,14.03
2022-07-29T04:32:25.022Z,9.73
2022-07-29T04:34:52.174Z,12.80
2022-07-29T04:37:18.853Z,13.88
2022-07-29T04:39:45.662Z,9.50
2022-07-29T04:42:12.407Z,10.07
2022-07-29T04:44:42.952Z,11.85
2022-07-29T04:47:10.306Z,13.13
2022-07-29T04:49:39.535Z,10.07
2022-07-29T04:52:07.239Z,9.90
2022-07-29T04:54:34.478Z,10.63
2022-07-29T04:57:01.222Z,13.57
2022-07-29T04:59:28.093Z,12.82
2022-07-29T05:01:55.075Z,13.73
2022-07-29T05:04:21.789Z,15.95
2022-07-29T05:06:48.836Z,14.60
2022-07-29T05:09:15.762Z,12.02
2022-07-29T05:11:42.639Z,13.75
2022-07-29T05:14:09.351Z,12.15
2022-07-29T05:16:36.695Z,11.02
2022-07-29T05:19:03.552Z,17.17
2022-07-29T05:21:30.210Z,12.23
2022-07-29T05:23:57.115Z,13.40
2022-07-29T05:26:23.835Z,15.23
2022-07-29T05:28:50.564Z,14.68
2022-07-29T05:31:17.551Z,12.63
2022-07-29T05:33:44.385Z,10.45
2022-07-29T05:36:11.614Z,10.35
2022-07-29T05:38:38.621Z,10.10
2022-07-29T05:41:06.214Z,9.05
2022-07-29T05:43:33.152Z,10.20
2022-07-29T05:46:00.083Z,11.13
2022-07-29T05:48:26.911Z,10.98
2022-07-29T05:50:53.810Z,11.05
2022-07-29T05:53:21.219Z,11.07
2022-07-29T05:55:49.105Z,12.83
2022-07-29T05:58:16.193Z,10.48
2022-07-29T06:00:43.165Z,8.93
2022-07-29T06:03:09.814Z,8.65
2022-07-29T06:05:36.606Z,8.63
2022-07-29T06:08:03.943Z,10.77
2022-07-29T06:10:30.686Z,10.80
2022-07-29T06:12:57.501Z,10.50
2022-07-29T06:15:24.330Z,12.50
2022-07-29T06:17:59.870Z,10.52
2022-07-29T06:20:31.291Z,12.97
2022-07-29T06:22:58.623Z,9.95
2022-07-29T06:25:25.342Z,10.25
2022-07-29T06:27:52.199Z,8.93
2022-07-29T06:30:18.936Z,8.90
2022-07-29T06:32:45.617Z,7.30
2022-07-29T06:35:38.482Z,8.60
2022-07-29T06:37:59.770Z,8.45
2022-07-29T06:40:45.506Z,7.45
2022-07-29T06:43:12.275Z,7.97
2022-07-29T06:45:42.265Z,7.73
2022-07-29T06:48:10.486Z,7.07
2022-07-29T06:50:37.351Z,7.30
2022-07-29T06:53:05.029Z,5.65
2022-07-29T06:55:31.801Z,5.22
2022-07-29T06:57:58.554Z,4.37
2022-07-29T07:00:25.537Z,5.25
2022-07-29T07:02:52.444Z,5.20
2022-07-29T07:05:19.179Z,4.93
2022-07-29T07:07:46.244Z,6.28
2022-07-29T07:10:12.896Z,4.90
2022-07-29T07:12:39.616Z,5.18
2022-07-29T07:15:07.193Z,5.03
2022-07-29T07:17:33.963Z,4.72
2022-07-29T07:20:00.635Z,4.75
2022-07-29T07:22:27.490Z,5.87
2022-07-29T07:24:54.157Z,6.57
2022-07-29T07:27:20.843Z,5.15
2022-07-29T07:29:47.681Z,5.80
2022-07-29T07:32:17.198Z,4.40
2022-07-29T07:34:44.321Z,5.13
2022-07-29T07:37:11.405Z,6.28
2022-07-29T07:39:38.062Z,5.55
2022-07-29T07:42:04.892Z,4.68
2022-07-29T07:44:31.738Z,6.20
2022-07-29T07:46:58.501Z,5.90
2022-07-29T07:49:31.004Z,7.20
2022-07-29T07:51:57.981Z,6.95
2022-07-29T07:54:24.642Z,8.40
2022-07-29T07:56:53.363Z,5.85
2022-07-29T07:59:20.345Z,5.40
2022-07-29T08:01:54.989Z,5.28
2022-07-29T08:04:28.033Z,9.05
2022-07-29T08:06:56.476Z,6.20
2022-07-29T08:09:30.988Z,6.38
2022-07-29T08:11:59.583Z,8.37
2022-07-29T08:14:26.348Z,6.82
2022-07-29T08:16:53.143Z,6.55
2022-07-29T08:19:20.447Z,8.57
2022-07-29T08:21:47.150Z,8.57
2022-07-29T08:24:32.555Z,9.53
2022-07-29T08:26:59.431Z,9.93
2022-07-29T08:29:26.099Z,7.53
2022-07-29T08:31:53.028Z,8.50
2022-07-29T08:34:21.587Z,6.85
2022-07-29T08:36:54.347Z,6.43
2022-07-29T08:39:21.239Z,8.13
2022-07-29T08:41:56.807Z,7.25
2022-07-29T08:44:30.571Z,6.22
2022-07-29T08:46:57.924Z,6.28
2022-07-29T08:49:25.181Z,6.43
2022-07-29T08:51:54.891Z,7.68
2022-07-29T08:54:23.406Z,7.80
2022-07-29T08:56:51.588Z,6.30
2022-07-29T08:59:23.647Z,6.63
2022-07-29T09:01:54.879Z,5.80
2022-07-29T09:04:23.202Z,5.75
2022-07-29T09:06:52.856Z,5.80
2022-07-29T09:09:19.854Z,7.50
2022-07-29T09:11:46.545Z,6.22
2022-07-29T09:14:14.535Z,6.67
2022-07-29T09:16:53.824Z,7.13
2022-07-29T09:19:29.373Z,8.40
2022-07-29T09:21:59.013Z,9.90
2022-07-29T09:24:38.382Z,7.72
2022-07-29T09:27:10.774Z,6.10
2022-07-29T09:29:38.470Z,7.15
2022-07-29T09:32:08.984Z,10.52
2022-07-29T09:34:35.808Z,11.63
2022-07-29T09:37:03.890Z,8.38
2022-07-29T09:39:50.059Z,8.70
2022-07-29T09:42:29.002Z,7.55
2022-07-29T09:44:55.893Z,9.02
2022-07-29T09:47:25.004Z,7.60
2022-07-29T09:50:00.676Z,8.88
2022-07-29T09:52:28.981Z,9.50
2022-07-29T09:55:10.209Z,11.95
2022-07-29T09:57:46.184Z,9.20
2022-07-29T10:00:20.964Z,7.35
2022-07-29T10:02:48.589Z,11.00
2022-07-29T10:05:26.926Z,9.23
2022-07-29T10:08:03.345Z,9.07
2022-07-29T10:10:35.619Z,6.75
2022-07-29T10:13:08.881Z,7.22
2022-07-29T10:15:44.662Z,7.53
2022-07-29T10:18:13.458Z,7.33
2022-07-29T10:20:41.338Z,10.45
2022-07-29T10:23:08.208Z,9.18
2022-07-29T10:25:34.927Z,5.60
2022-07-29T10:28:01.843Z,6.60
2022-07-29T10:30:28.876Z,5.37
2022-07-29T10:33:26.856Z,6.93
2022-07-29T10:36:33.786Z,5.68
2022-07-29T10:42:10.155Z,5.53
2022-07-29T10:44:43.531Z,6.43
2022-07-29T10:47:24.579Z,6.10
2022-07-29T10:50:05.756Z,7.50
2022-07-29T10:52:51.007Z,5.32
2022-07-29T10:55:43.200Z,7.22
2022-07-29T10:58:26.926Z,4.73
2022-07-29T11:00:56.463Z,5.15
2022-07-29T11:03:49.358Z,4.88
2022-07-29T11:06:17.921Z,7.25
2022-07-29T11:08:45.359Z,4.53
2022-07-29T11:11:29.573Z,6.27
2022-07-29T11:13:57.045Z,7.25
2022-07-29T11:16:24.866Z,4.65
2022-07-29T11:19:14.319Z,4.30
2022-07-29T11:21:55.528Z,6.22
2022-07-29T11:24:32.032Z,6.23
2022-07-29T11:30:03.245Z,6.53
2022-07-29T11:32:38.937Z,4.95
2022-07-29T11:35:17.185Z,4.88
2022-07-29T11:37:52.502Z,8.40
2022-07-29T11:40:24.607Z,6.05
2022-07-29T11:42:52.917Z,5.80
2022-07-29T11:45:44.273Z,5.85
2022-07-29T11:48:29.387Z,7.13
2022-07-29T11:50:59.539Z,4.90
2022-07-29T11:53:28.759Z,5.30
2022-07-29T11:55:58.304Z,4.82
2022-07-29T11:58:26.137Z,5.32
2022-07-29T12:00:55.521Z,4.22
2022-07-29T12:03:33.328Z,5.50
2022-07-29T12:06:02.691Z,5.80
2022-07-29T12:08:30.712Z,6.22
2022-07-29T12:10:57.420Z,5.10
2022-07-29T12:13:37.428Z,5.65
2022-07-29T12:16:05.310Z,6.00
2022-07-29T12:18:32.382Z,4.57
2022-07-29T12:21:03.803Z,5.22
2022-07-29T12:23:34.843Z,6.13
2022-07-29T12:26:07.562Z,5.18
2022-07-29T12:28:40.435Z,4.80
2022-07-29T12:31:14.757Z,6.32
2022-07-29T12:33:42.058Z,6.03
2022-07-29T12:36:12.997Z,5.00
2022-07-29T12:38:45.446Z,6.40
2022-07-29T12:41:12.630Z,5.13
2022-07-29T12:43:53.720Z,6.72
2022-07-29T12:46:21.038Z,7.85
2022-07-29T12:48:55.648Z,6.20
2022-07-29T12:51:37.553Z,7.25
2022-07-29T12:54:07.878Z,5.07
2022-07-29T12:56:43.958Z,4.70
2022-07-29T12:59:21.229Z,6.22
2022-07-29T13:01:50.613Z,7.35
2022-07-29T13:04:32.279Z,5.10
2022-07-29T13:07:06.424Z,5.40
2022-07-29T13:09:43.330Z,5.45
2022-07-29T13:12:12.418Z,6.43
2022-07-29T13:14:41.678Z,5.38
2022-07-29T13:17:25.827Z,5.95
2022-07-29T13:20:08.856Z,5.27
2022-07-29T13:22:35.988Z,6.20
2022-07-29T13:25:03.691Z,7.20
2022-07-29T13:27:33.195Z,6.38
2022-07-29T13:30:02.113Z,5.00
2022-07-29T13:32:30.926Z,6.27
2022-07-29T13:34:59.527Z,4.50
2022-07-29T13:37:27.285Z,4.60
2022-07-29T13:39:55.127Z,6.22
2022-07-29T13:42:21.928Z,3.90
2022-07-29T13:44:49.738Z,6.37
2022-07-29T13:47:17.214Z,5.80
2022-07-29T13:49:44.001Z,5.22
2022-07-29T13:52:10.707Z,5.78
2022-07-29T13:54:42.136Z,5.38
2022-07-29T13:57:11.804Z,5.73
2022-07-29T13:59:40.192Z,6.55
2022-07-29T14:02:07.691Z,6.32
2022-07-29T14:04:34.498Z,5.68
2022-07-29T14:07:03.675Z,5.85
2022-07-29T14:09:37.319Z,6.83
2022-07-29T14:12:09.295Z,6.25
2022-07-29T14:14:37.556Z,5.75
2022-07-29T14:17:07.429Z,5.93
2022-07-29T14:19:39.440Z,5.85
2022-07-29T14:22:07.414Z,5.63
2022-07-29T14:24:37.032Z,5.47
2022-07-29T14:27:05.907Z,5.22
2022-07-29T14:29:39.626Z,9.95
2022-07-29T14:32:11.487Z,5.78
2022-07-29T14:34:39.015Z,7.47
2022-07-29T14:37:06.694Z,6.00
2022-07-29T14:39:42.127Z,5.75
2022-07-29T14:42:09.953Z,9.05
2022-07-29T14:44:38.577Z,5.07
2022-07-29T14:47:07.446Z,5.27
2022-07-29T14:49:35.378Z,7.05
2022-07-29T14:52:02.235Z,5.97
2022-07-29T14:54:29.035Z,5.68
2022-07-29T14:56:58.194Z,7.50
2022-07-29T14:59:26.293Z,7.57
2022-07-29T15:01:53.198Z,6.22
2022-07-29T15:04:20.010Z,5.93
2022-07-29T15:06:46.882Z,7.22
2022-07-29T15:09:13.628Z,5.22
2022-07-29T15:11:40.255Z,7.37
2022-07-29T15:14:07.453Z,6.65
2022-07-29T15:16:37.021Z,9.60
2022-07-29T15:19:04.509Z,15.95
2022-07-29T15:21:31.397Z,13.95
2022-07-29T15:23:58.090Z,10.43
2022-07-29T15:26:24.775Z,11.88
2022-07-29T15:28:52.039Z,12.13
2022-07-29T15:31:19.853Z,7.88
2022-07-29T15:33:46.571Z,9.65
2022-07-29T15:36:35.639Z,8.03
2022-07-29T15:39:00.561Z,8.38
2022-07-29T15:41:27.509Z,7.40
2022-07-29T15:43:54.160Z,8.65
2022-07-29T15:46:40.242Z,7.05
2022-07-29T15:49:08.141Z,6.77
2022-07-29T15:51:35.243Z,5.95
2022-07-29T15:54:03.686Z,5.32
2022-07-29T15:56:31.318Z,7.63
2022-07-29T15:58:58.592Z,7.78
2022-07-29T16:01:25.627Z,5.93
2022-07-29T16:03:53.441Z,8.25
2022-07-29T16:06:20.485Z,7.75
2022-07-29T16:08:47.201Z,8.65
2022-07-29T16:11:14.038Z,6.53
2022-07-29T16:13:40.721Z,7.30
2022-07-29T16:16:08.043Z,7.38
2022-07-29T16:18:34.895Z,8.93
2022-07-29T16:21:01.888Z,7.35
2022-07-29T16:23:28.542Z,7.38
2022-07-29T16:26:00.558Z,7.03
2022-07-29T16:28:29.084Z,7.03
2022-07-29T16:30:57.182Z,8.45
2022-07-29T16:33:24.470Z,10.27
2022-07-29T16:35:52.347Z,6.97
2022-07-29T16:38:19.301Z,5.43
2022-07-29T16:40:46.564Z,14.75
2022-07-29T16:43:13.322Z,9.85
2022-07-29T16:45:45.343Z,7.45
2022-07-29T16:48:14.427Z,24.60
2022-07-29T16:50:43.304Z,10.77
2022-07-29T16:53:10.953Z,13.05
2022-07-29T16:55:38.044Z,12.23
2022-07-29T16:58:05.328Z,15.27
2022-07-29T17:00:32.542Z,9.98
2022-07-29T17:03:00.063Z,15.60
2022-07-29T17:05:27.676Z,8.13
2022-07-29T17:07:54.707Z,7.80
2022-07-29T17:10:22.275Z,8.85
2022-07-29T17:12:49.289Z,9.82
2022-07-29T17:15:18.491Z,10.03
2022-07-29T17:17:55.472Z,14.57
2022-07-29T17:20:24.122Z,10.90
2022-07-29T17:22:50.932Z,16.25
2022-07-29T17:25:20.841Z,14.65
2022-07-29T17:27:50.777Z,19.30
2022-07-29T17:30:18.062Z,12.80
2022-07-29T17:32:44.954Z,20.08
2022-07-29T17:35:30.304Z,20.83
2022-07-29T17:37:57.085Z,21.50
2022-07-29T17:40:24.384Z,18.40
2022-07-29T17:42:51.513Z,19.83
2022-07-29T17:45:18.183Z,18.13
2022-07-29T17:47:45.406Z,17.13
2022-07-29T17:50:12.123Z,15.00
2022-07-29T17:52:39.236Z,10.67
2022-07-29T17:55:07.374Z,10.98
2022-07-29T17:57:34.266Z,9.02
2022-07-29T18:00:01.092Z,8.60
2022-07-29T18:02:28.420Z,7.97
2022-07-29T18:04:55.410Z,8.43
2022-07-29T18:07:22.121Z,11.68
2022-07-29T18:09:49.070Z,11.38
2022-07-29T18:12:15.930Z,7.07
2022-07-29T18:14:42.628Z,8.30
2022-07-29T18:17:09.556Z,8.90
2022-07-29T18:19:36.193Z,10.05
2022-07-29T18:22:05.396Z,9.32
2022-07-29T18:24:32.732Z,9.55
2022-07-29T18:26:59.918Z,8.25
2022-07-29T18:29:29.054Z,8.87
2022-07-29T18:31:56.419Z,9.93
2022-07-29T18:34:23.050Z,7.78
2022-07-29T18:36:49.711Z,8.13
2022-07-29T18:39:20.458Z,7.47
2022-07-29T18:41:50.250Z,8.60
2022-07-29T18:44:22.034Z,7.47
2022-07-29T18:46:50.026Z,8.65
2022-07-29T18:49:16.832Z,12.90
2022-07-29T18:51:43.871Z,10.40
2022-07-29T18:54:10.894Z,8.10
2022-07-29T18:56:37.827Z,7.60
2022-07-29T18:59:05.047Z,9.30
2022-07-29T19:01:32.347Z,11.80
2022-07-29T19:03:59.522Z,10.27
2022-07-29T19:06:26.432Z,10.37
2022-07-29T19:08:53.462Z,14.43
2022-07-29T19:11:20.195Z,8.88
2022-07-29T19:13:47.076Z,10.68
2022-07-29T19:16:14.562Z,11.07
2022-07-29T19:18:43.112Z,12.83
2022-07-29T19:21:10.642Z,9.98
2022-07-29T19:24:01.401Z,11.65
2022-07-29T19:26:24.481Z,10.88
2022-07-29T19:28:53.451Z,8.38
2022-07-29T19:31:20.335Z,10.40
2022-07-29T19:33:47.484Z,11.18
2022-07-29T19:36:14.522Z,7.93
2022-07-29T19:38:41.547Z,11.32
2022-07-29T19:41:08.672Z,8.52
2022-07-29T19:43:50.378Z,9.17
2022-07-29T19:46:19.357Z,9.70
2022-07-29T19:48:46.130Z,8.90
2022-07-29T19:51:12.930Z,9.13
2022-07-29T19:53:40.027Z,7.55
2022-07-29T19:56:08.997Z,9.90
2022-07-29T19:58:36.283Z,9.15
2022-07-29T20:01:10.477Z,9.73
2022-07-29T20:03:40.492Z,8.15
2022-07-29T20:06:07.881Z,9.63
2022-07-29T20:08:34.812Z,8.73
2022-07-29T20:11:01.670Z,8.88
2022-07-29T20:13:31.238Z,8.05
2022-07-29T20:16:00.031Z,7.90
2022-07-29T20:18:27.339Z,9.23
2022-07-29T20:20:56.179Z,7.60
2022-07-29T20:23:23.249Z,8.70
2022-07-29T20:25:50.188Z,6.95
2022-07-29T20:28:17.570Z,7.57
2022-07-29T20:30:44.310Z,7.40
2022-07-29T20:33:14.283Z,8.77
2022-07-29T20:35:41.326Z,6.05
2022-07-29T20:38:08.384Z,7.20
2022-07-29T20:40:35.822Z,6.75
2022-07-29T20:43:02.756Z,6.50
2022-07-29T20:45:29.559Z,7.57
2022-07-29T20:47:56.219Z,5.90
2022-07-29T20:50:24.514Z,7.00
2022-07-29T20:52:52.296Z,7.95
2022-07-29T20:55:18.943Z,8.35
2022-07-29T20:57:46.034Z,7.97
2022-07-29T21:00:13.086Z,9.40
2022-07-29T21:02:39.873Z,6.78
2022-07-29T21:05:07.196Z,7.97
2022-07-29T21:07:33.907Z,6.05
2022-07-29T21:10:00.583Z,7.20
2022-07-29T21:12:29.961Z,7.90
2022-07-29T21:14:57.798Z,7.35
2022-07-29T21:17:25.143Z,7.55
2022-07-29T21:19:53.288Z,8.65
2022-07-29T21:22:22.187Z,6.50
2022-07-29T21:24:50.053Z,6.43
2022-07-29T21:27:38.201Z,8.30
2022-07-29T21:30:07.710Z,6.45
2022-07-29T21:32:34.614Z,7.03
2022-07-29T21:35:01.468Z,8.20
2022-07-29T21:37:28.229Z,6.97
2022-07-29T21:39:55.581Z,8.68
2022-07-29T21:42:22.587Z,7.70
2022-07-29T21:44:49.471Z,6.93
2022-07-29T21:47:16.588Z,8.77
2022-07-29T21:49:43.434Z,6.47
2022-07-29T21:52:10.182Z,7.18
2022-07-29T21:54:38.268Z,9.02
2022-07-29T21:57:05.570Z,6.47
2022-07-29T21:59:32.734Z,8.20
2022-07-29T22:02:01.142Z,6.10
2022-07-29T22:04:29.199Z,6.72
2022-07-29T22:06:56.236Z,7.00
2022-07-29T22:09:23.807Z,7.13
2022-07-29T22:11:51.083Z,7.20
2022-07-29T22:14:18.544Z,7.95
2022-07-29T22:16:46.762Z,6.40
2022-07-29T22:19:14.525Z,7.22
2022-07-29T22:21:41.994Z,6.93
2022-07-29T22:24:10.308Z,7.80
2022-07-29T22:26:38.254Z,7.35
2022-07-29T22:29:05.364Z,8.05
2022-07-29T22:31:32.330Z,6.43
2022-07-29T22:33:59.207Z,7.05
2022-07-29T22:36:26.745Z,7.70
2022-07-29T22:38:53.608Z,6.10
2022-07-29T22:41:20.282Z,6.45
2022-07-29T22:43:46.924Z,7.18
2022-07-29T22:46:13.804Z,6.57
2022-07-29T22:48:40.656Z,6.10
2022-07-29T22:51:07.392Z,6.13
2022-07-29T22:53:35.205Z,8.23
2022-07-29T22:56:01.869Z,6.38
2022-07-29T22:58:28.655Z,6.60
2022-07-29T23:00:55.566Z,7.30
2022-07-29T23:03:22.722Z,7.75
2022-07-29T23:05:51.536Z,6.78
2022-07-29T23:08:19.262Z,9.23
2022-07-29T23:10:46.171Z,8.25
2022-07-29T23:13:13.428Z,8.43
2022-07-29T23:15:41.567Z,7.00
2022-07-29T23:18:08.217Z,6.93
2022-07-29T23:20:35.076Z,6.82
2022-07-29T23:23:02.123Z,6.03
2022-07-29T23:25:28.912Z,6.83
2022-07-29T23:27:55.611Z,8.13
2022-07-29T23:30:22.571Z,7.07
2022-07-29T23:32:49.391Z,7.65
2022-07-29T23:35:16.127Z,6.55
2022-07-29T23:37:43.006Z,9.00
2022-07-29T23:40:14.267Z,7.82
2022-07-29T23:42:42.915Z,6.50
2022-07-29T23:45:11.347Z,6.72
2022-07-29T23:47:38.356Z,7.07
2022-07-29T23:50:07.119Z,6.37
2022-07-29T23:52:34.385Z,8.02
2022-07-29T23:55:38.180Z,6.85
2022-07-29T23:57:50.157Z,7.95
